Galesburg, Iowa
Current Conditions -  °F | °C
As of 8:35 PM on Friday 24 Oct 2014 (Local Time) from KTNU Reporting Station
Moderate Fog Moderate Fog  
Wind Chill: 13°   Ceiling: Unl
Heat Index: 13°   Visibility: 0mi
Dew Point: 13°   Wind: 5mph
Humidity: 100%   Direction: 180°S
Pressure: 29.95"   Gusts: NA
Location:  41.587°N, 93.0159°W
Report Text: KTNU 250135Z AUTO 18004KT M1/4SM FG VV000 13/13 A2995 RMK AO2
Loading
Personal Weather Stations






























Interactive Weather Map
Tropical Storm Tracking
New forecast layout! Learn more

10-Day Weather Forecast

Advertisements
Track Severe Weather on mobile